Time;durP1;ratioP1;P1;durP2;ratioP2;P2;SDS_P1;SDS_P2;PMS_P1;PMS_P2;Temp;Humidity;BMP_temperature;BMP_pressure;BME280_temperature;BME280_humidity;BME280_pressure;Samples;Min_cycle;Max_cycle;Signal;HPM_P1;HPM_P2
2023/09/14 00:00:46;;;;;;;9.63;4.88;;;10.20;99.90;;;;;;5076833;28;20524;-63
2023/09/14 00:03:12;;;;;;;8.65;3.80;;;10.30;99.90;;;;;;5059174;28;20044;-64
2023/09/14 00:05:48;;;;;;;9.60;4.55;;;10.30;99.90;;;;;;5058463;28;20043;-63
2023/09/14 00:08:14;;;;;;;9.65;4.68;;;10.30;99.90;;;;;;5052576;28;20045;-63
2023/09/14 00:10:40;;;;;;;9.27;5.10;;;10.30;99.90;;;;;;5089276;28;20044;-63
2023/09/14 00:13:08;;;;;;;9.23;4.53;;;10.20;99.90;;;;;;5029713;28;20047;-63
2023/09/14 00:15:34;;;;;;;9.50;5.10;;;10.20;99.90;;;;;;5060085;28;20044;-63
2023/09/14 00:18:00;;;;;;;11.00;4.97;;;10.20;99.90;;;;;;5072100;28;20043;-64
2023/09/14 00:20:30;;;;;;;12.48;4.50;;;10.20;99.90;;;;;;5059265;28;20500;-63
2023/09/14 00:22:57;;;;;;;11.05;4.90;;;10.20;99.90;;;;;;5047991;28;20052;-63
2023/09/14 00:25:23;;;;;;;8.73;4.20;;;10.10;99.90;;;;;;5028248;28;20043;-63
2023/09/14 00:27:51;;;;;;;9.00;4.22;;;10.10;99.90;;;;;;5023553;28;20052;-63
2023/09/14 00:30:22;;;;;;;10.15;4.70;;;10.10;99.90;;;;;;5056593;28;20052;-64
2023/09/14 00:32:50;;;;;;;11.48;5.05;;;10.00;99.90;;;;;;5053089;28;20046;-63
2023/09/14 00:35:18;;;;;;;13.52;4.75;;;9.90;99.90;;;;;;5038815;28;20408;-63
2023/09/14 00:37:45;;;;;;;8.57;3.92;;;9.80;99.90;;;;;;5041110;28;20574;-63
2023/09/14 00:40:12;;;;;;;10.55;4.43;;;9.80;99.90;;;;;;5039686;28;20052;-63
2023/09/14 00:42:39;;;;;;;6.43;3.90;;;9.80;99.90;;;;;;5059708;28;20119;-63
2023/09/14 00:45:10;;;;;;;7.80;4.35;;;9.80;99.90;;;;;;5038920;28;20079;-64
2023/09/14 00:47:38;;;;;;;7.55;4.07;;;9.80;99.90;;;;;;5038711;28;20047;-64
2023/09/14 00:50:05;;;;;;;10.35;4.63;;;9.80;99.90;;;;;;5036589;28;20536;-63
2023/09/14 00:52:36;;;;;;;7.53;4.38;;;9.70;99.90;;;;;;5041219;28;20195;-63
2023/09/14 00:55:05;;;;;;;8.30;4.43;;;9.80;99.90;;;;;;5038099;28;20037;-64
2023/09/14 00:57:32;;;;;;;8.15;3.88;;;9.80;99.90;;;;;;5058549;28;20106;-63
2023/09/14 00:59:59;;;;;;;13.52;4.82;;;9.80;99.90;;;;;;5059132;28;20044;-64
2023/09/14 01:02:26;;;;;;;7.05;4.15;;;9.90;99.90;;;;;;5029273;28;20128;-63
2023/09/14 01:04:53;;;;;;;9.40;4.38;;;9.90;99.90;;;;;;5054520;28;20489;-64
2023/09/14 01:07:19;;;;;;;7.10;4.47;;;9.90;99.90;;;;;;5056039;28;20155;-64
2023/09/14 01:09:44;;;;;;;11.68;4.68;;;9.90;99.90;;;;;;5049438;28;20036;-64
2023/09/14 01:12:10;;;;;;;9.27;3.72;;;9.90;99.90;;;;;;5055041;28;20094;-63
2023/09/14 01:15:00;;;;;;;8.25;4.20;;;9.90;99.90;;;;;;5057214;28;20045;-63
2023/09/14 01:17:50;;;;;;;10.30;5.03;;;9.90;99.90;;;;;;5059032;28;20044;-64
2023/09/14 01:20:34;;;;;;;7.40;4.63;;;9.90;99.90;;;;;;5059629;28;20049;-64
2023/09/14 01:23:25;;;;;;;9.32;4.30;;;9.90;99.90;;;;;;5047420;28;20053;-63
2023/09/14 01:25:52;;;;;;;10.48;4.53;;;9.90;99.90;;;;;;5042856;28;20048;-63
2023/09/14 01:28:18;;;;;;;10.48;4.53;;;9.90;99.90;;;;;;5044462;28;20493;-63
2023/09/14 01:30:44;;;;;;;14.35;4.65;;;9.90;99.90;;;;;;5058129;28;20419;-63
2023/09/14 01:33:14;;;;;;;11.90;4.80;;;9.90;99.90;;;;;;5030802;28;20033;-64
2023/09/14 01:36:14;;;;;;;8.27;4.95;;;9.90;99.90;;;;;;5061616;28;20055;-63
2023/09/14 01:38:41;;;;;;;10.65;5.22;;;9.90;99.90;;;;;;5059661;28;20054;-63
2023/09/14 01:41:07;;;;;;;10.18;5.15;;;9.90;99.90;;;;;;5042274;28;20576;-63
2023/09/14 01:43:34;;;;;;;9.25;4.95;;;9.90;99.90;;;;;;5062487;28;20079;-63
2023/09/14 01:46:02;;;;;;;13.18;5.13;;;9.90;99.90;;;;;;5045127;28;20048;-63
2023/09/14 01:48:28;;;;;;;9.45;4.75;;;9.90;99.90;;;;;;5057973;28;20041;-63
2023/09/14 01:50:54;;;;;;;11.15;4.72;;;9.80;99.90;;;;;;5045069;28;20583;-63
2023/09/14 01:53:20;;;;;;;8.80;3.92;;;9.90;99.90;;;;;;5063985;28;20048;-64
2023/09/14 01:55:46;;;;;;;7.75;4.40;;;9.80;99.90;;;;;;5022442;28;20581;-63
2023/09/14 01:58:12;;;;;;;8.98;4.57;;;9.90;99.90;;;;;;5038675;28;20136;-63
2023/09/14 02:00:38;;;;;;;10.27;4.40;;;9.80;99.90;;;;;;5060932;28;20049;-63
2023/09/14 02:03:04;;;;;;;13.98;5.47;;;9.80;99.90;;;;;;5030072;28;20037;-64
2023/09/14 02:05:30;;;;;;;9.90;4.78;;;9.80;99.90;;;;;;5043801;28;20481;-63
2023/09/14 02:07:56;;;;;;;10.65;5.07;;;9.80;99.90;;;;;;5058895;28;20089;-63
2023/09/14 02:10:22;;;;;;;9.63;5.18;;;9.80;99.90;;;;;;5041362;28;20041;-63
2023/09/14 02:12:49;;;;;;;11.05;5.25;;;9.80;99.90;;;;;;5054388;28;20451;-64
2023/09/14 02:15:15;;;;;;;8.25;5.38;;;9.80;99.90;;;;;;5014879;28;20560;-63
2023/09/14 02:17:40;;;;;;;10.10;4.68;;;9.70;99.90;;;;;;5087683;28;20403;-63
2023/09/14 02:20:08;;;;;;;10.60;5.50;;;9.70;99.90;;;;;;5039382;28;20049;-64
2023/09/14 02:22:34;;;;;;;10.07;5.03;;;9.60;99.90;;;;;;5055251;28;20045;-64
2023/09/14 02:24:59;;;;;;;10.32;5.10;;;9.60;99.90;;;;;;5059469;28;20045;-64
2023/09/14 02:27:25;;;;;;;8.95;5.00;;;9.60;99.90;;;;;;5038122;28;20474;-63
2023/09/14 02:29:55;;;;;;;11.57;4.50;;;9.60;99.90;;;;;;5091864;28;20479;-64
2023/09/14 02:32:21;;;;;;;9.02;4.40;;;9.60;99.90;;;;;;5043298;28;20501;-64
2023/09/14 02:34:48;;;;;;;7.40;3.90;;;9.60;99.90;;;;;;5057424;28;20041;-64
2023/09/14 02:37:14;;;;;;;7.18;4.60;;;9.60;99.90;;;;;;5025215;28;20111;-64
2023/09/14 02:39:40;;;;;;;11.13;4.50;;;9.50;99.90;;;;;;5056901;28;20414;-63
2023/09/14 02:42:06;;;;;;;8.52;4.50;;;9.50;99.90;;;;;;5038661;28;20060;-63
2023/09/14 02:44:32;;;;;;;7.10;4.03;;;9.50;99.90;;;;;;5040727;28;20037;-63
2023/09/14 02:46:58;;;;;;;11.90;4.55;;;9.50;99.90;;;;;;5059826;28;20040;-63
2023/09/14 02:49:23;;;;;;;12.35;4.45;;;9.50;99.90;;;;;;5087644;28;20086;-63
2023/09/14 02:51:51;;;;;;;9.68;4.55;;;9.50;99.90;;;;;;5059138;28;20040;-63
2023/09/14 02:54:17;;;;;;;9.95;4.63;;;9.50;99.90;;;;;;5090135;28;20044;-63
2023/09/14 02:56:43;;;;;;;10.68;5.05;;;9.50;99.90;;;;;;5057011;28;20067;-63
2023/09/14 02:59:09;;;;;;;20.50;5.25;;;9.50;99.90;;;;;;5075238;28;20492;-63
2023/09/14 03:01:35;;;;;;;10.18;4.97;;;9.60;99.90;;;;;;5024355;28;20071;-64
2023/09/14 03:04:00;;;;;;;9.48;4.65;;;9.60;99.90;;;;;;5042933;28;20494;-63
2023/09/14 03:06:26;;;;;;;9.95;4.88;;;9.60;99.90;;;;;;5039952;28;20604;-64
2023/09/14 03:08:52;;;;;;;10.00;4.30;;;9.60;99.90;;;;;;5043528;28;20510;-63
2023/09/14 03:11:18;;;;;;;12.30;4.75;;;9.60;99.90;;;;;;5042193;28;20049;-64
2023/09/14 03:13:44;;;;;;;8.75;4.72;;;9.60;99.90;;;;;;5028904;28;20474;-63
2023/09/14 03:16:10;;;;;;;12.32;4.90;;;9.50;99.90;;;;;;5093094;28;20048;-63
2023/09/14 03:18:36;;;;;;;10.20;4.82;;;9.60;99.90;;;;;;5034274;28;20510;-63
2023/09/14 03:21:01;;;;;;;9.13;4.40;;;9.50;99.90;;;;;;5021547;28;20037;-64
2023/09/14 03:23:27;;;;;;;14.15;5.20;;;9.50;99.90;;;;;;5055660;28;20036;-63
2023/09/14 03:25:56;;;;;;;8.80;5.25;;;9.50;99.90;;;;;;5023668;28;20514;-63
2023/09/14 03:28:22;;;;;;;10.60;5.03;;;9.50;99.90;;;;;;5053638;28;20048;-63
2023/09/14 03:30:47;;;;;;;11.85;5.28;;;9.50;99.90;;;;;;5053741;28;20045;-63
2023/09/14 03:33:13;;;;;;;8.60;4.75;;;9.50;99.90;;;;;;5061688;28;20140;-63
2023/09/14 03:35:41;;;;;;;6.32;4.30;;;9.50;99.90;;;;;;5040023;28;20040;-64
2023/09/14 03:38:07;;;;;;;15.85;5.65;;;9.50;99.90;;;;;;5059269;28;20163;-63
2023/09/14 03:40:32;;;;;;;10.73;4.78;;;9.50;99.90;;;;;;5040899;28;20561;-63
2023/09/14 03:43:01;;;;;;;9.93;4.80;;;9.40;99.90;;;;;;5029638;28;20068;-64
2023/09/14 03:45:27;;;;;;;7.75;4.38;;;9.40;99.90;;;;;;5043024;28;20098;-63
2023/09/14 03:47:55;;;;;;;8.13;4.45;;;9.30;99.90;;;;;;5071479;28;20032;-63
2023/09/14 03:50:21;;;;;;;5.80;4.40;;;9.20;99.90;;;;;;5052581;28;20119;-63
2023/09/14 03:52:46;;;;;;;7.55;4.38;;;9.20;99.90;;;;;;5044282;28;20132;-64
2023/09/14 03:55:12;;;;;;;8.52;4.13;;;9.10;99.90;;;;;;5041680;28;20540;-63
2023/09/14 03:57:38;;;;;;;8.63;4.05;;;9.10;99.90;;;;;;5074092;28;20048;-63
2023/09/14 04:00:10;;;;;;;8.45;4.30;;;9.10;99.90;;;;;;5057471;28;20131;-64
2023/09/14 04:02:36;;;;;;;6.85;4.60;;;9.10;99.90;;;;;;5039881;28;20040;-63
2023/09/14 04:05:15;;;;;;;7.28;4.00;;;9.10;99.90;;;;;;5021585;28;20052;-63
2023/09/14 04:07:42;;;;;;;7.43;4.00;;;9.10;99.90;;;;;;5039382;28;20032;-64
2023/09/14 04:10:10;;;;;;;10.95;4.30;;;9.10;99.90;;;;;;5037802;28;20473;-63
2023/09/14 04:12:40;;;;;;;6.40;4.18;;;9.10;99.90;;;;;;5037796;28;20036;-63
2023/09/14 04:15:07;;;;;;;8.27;3.95;;;9.10;99.90;;;;;;5040325;28;20037;-64
2023/09/14 04:17:33;;;;;;;5.72;3.63;;;9.10;99.90;;;;;;5058371;28;20052;-63
2023/09/14 04:19:59;;;;;;;8.20;3.88;;;9.10;99.90;;;;;;5056371;28;20119;-64
2023/09/14 04:22:25;;;;;;;9.25;3.80;;;9.10;99.90;;;;;;5042633;28;20466;-63
2023/09/14 04:24:51;;;;;;;9.15;4.20;;;9.10;99.90;;;;;;5058692;28;20045;-63
2023/09/14 04:27:16;;;;;;;8.45;4.10;;;9.10;99.90;;;;;;5025850;28;20041;-64
2023/09/14 04:29:43;;;;;;;8.73;4.05;;;9.10;99.90;;;;;;5042037;28;20036;-64
2023/09/14 04:32:09;;;;;;;8.35;3.20;;;9.10;99.90;;;;;;5090353;28;20039;-63
2023/09/14 04:34:35;;;;;;;8.68;4.40;;;9.10;99.90;;;;;;5043046;28;20045;-63
2023/09/14 04:37:00;;;;;;;7.32;3.60;;;9.20;99.90;;;;;;5058575;28;21103;-63
2023/09/14 04:39:27;;;;;;;7.72;3.47;;;9.10;99.90;;;;;;5040363;28;20093;-63
2023/09/14 04:41:53;;;;;;;8.68;4.00;;;9.10;99.90;;;;;;5041009;28;20111;-63
2023/09/14 04:44:18;;;;;;;17.17;3.83;;;9.20;99.90;;;;;;5055229;28;20087;-64
2023/09/14 04:46:44;;;;;;;6.90;3.40;;;9.20;99.90;;;;;;5036640;28;20040;-64
2023/09/14 04:49:12;;;;;;;8.10;3.65;;;9.20;99.90;;;;;;5042800;28;20056;-63
2023/09/14 04:51:38;;;;;;;7.65;3.75;;;9.10;99.90;;;;;;5087943;28;20444;-63
2023/09/14 04:54:03;;;;;;;7.72;3.38;;;9.10;99.90;;;;;;5029873;28;20119;-64
2023/09/14 04:56:29;;;;;;;5.50;3.60;;;9.10;99.90;;;;;;5019389;28;20037;-64
2023/09/14 04:58:55;;;;;;;7.20;3.70;;;9.10;99.90;;;;;;5059729;28;20070;-64
2023/09/14 05:01:20;;;;;;;8.55;3.75;;;9.10;99.90;;;;;;5028942;28;20124;-63
2023/09/14 05:03:46;;;;;;;5.80;3.47;;;9.10;99.90;;;;;;5045715;28;20075;-64
2023/09/14 05:06:12;;;;;;;5.38;3.55;;;9.00;99.90;;;;;;5044223;28;20052;-64
2023/09/14 05:08:38;;;;;;;6.43;3.70;;;9.00;99.90;;;;;;5022890;28;20037;-63
2023/09/14 05:11:04;;;;;;;7.10;3.90;;;9.00;99.90;;;;;;5060276;28;20051;-63
2023/09/14 05:13:30;;;;;;;6.68;3.90;;;9.00;99.90;;;;;;5024367;28;20036;-64
2023/09/14 05:15:57;;;;;;;7.40;4.15;;;9.00;99.90;;;;;;5048137;28;20067;-68
2023/09/14 05:18:22;;;;;;;12.80;4.00;;;9.00;99.90;;;;;;5039441;28;20041;-69
2023/09/14 05:20:48;;;;;;;9.85;4.35;;;9.00;99.90;;;;;;5046503;28;20456;-69
2023/09/14 05:23:14;;;;;;;10.48;4.15;;;8.90;99.90;;;;;;5044517;28;20043;-69
2023/09/14 05:25:41;;;;;;;6.22;3.88;;;8.90;99.90;;;;;;5045954;28;20072;-69
2023/09/14 05:28:08;;;;;;;5.85;3.35;;;8.90;99.90;;;;;;5089359;28;20057;-69
2023/09/14 05:30:35;;;;;;;8.75;3.53;;;8.90;99.90;;;;;;5071810;28;20040;-69
2023/09/14 05:33:01;;;;;;;5.72;3.55;;;8.90;99.90;;;;;;5061119;28;20048;-69
2023/09/14 05:35:26;;;;;;;9.32;3.88;;;8.90;99.90;;;;;;5046423;28;20040;-69
2023/09/14 05:37:52;;;;;;;8.00;3.50;;;8.90;99.90;;;;;;5029157;28;20048;-68
2023/09/14 05:40:18;;;;;;;7.45;3.58;;;8.90;99.90;;;;;;5054853;28;20132;-69
2023/09/14 05:42:44;;;;;;;7.63;3.50;;;8.80;99.90;;;;;;5073606;28;20083;-69
2023/09/14 05:45:11;;;;;;;5.40;3.15;;;8.90;99.90;;;;;;5046792;28;20047;-69
2023/09/14 05:47:37;;;;;;;5.25;3.53;;;8.90;99.90;;;;;;5028805;28;20059;-69
2023/09/14 05:50:05;;;;;;;4.63;3.15;;;8.80;99.90;;;;;;5059855;28;20064;-69
2023/09/14 05:52:31;;;;;;;6.53;3.58;;;8.80;99.90;;;;;;5057806;28;20033;-69
2023/09/14 05:54:58;;;;;;;8.10;4.00;;;8.80;99.90;;;;;;5072570;28;20076;-69
2023/09/14 05:57:24;;;;;;;8.45;3.75;;;8.80;99.90;;;;;;5049143;28;20047;-69
2023/09/14 05:59:50;;;;;;;6.75;3.50;;;8.90;99.90;;;;;;5055848;28;20053;-69
2023/09/14 06:02:18;;;;;;;7.13;3.50;;;8.90;99.90;;;;;;5094575;28;20123;-68
2023/09/14 06:04:44;;;;;;;5.80;2.85;;;8.90;99.90;;;;;;5073270;28;20493;-68
2023/09/14 06:07:10;;;;;;;6.57;3.38;;;8.90;99.90;;;;;;5044809;28;20064;-69
2023/09/14 06:09:36;;;;;;;6.30;3.30;;;9.00;99.90;;;;;;5041614;28;20072;-69
2023/09/14 06:12:02;;;;;;;5.50;3.10;;;9.00;99.90;;;;;;5041459;28;20032;-69
2023/09/14 06:14:27;;;;;;;5.40;3.08;;;9.00;99.90;;;;;;5030238;28;20040;-69
2023/09/14 06:16:53;;;;;;;4.10;3.15;;;9.00;99.90;;;;;;5039515;28;20067;-69
2023/09/14 06:19:19;;;;;;;7.05;3.10;;;9.10;99.90;;;;;;5036193;28;21027;-69
2023/09/14 06:21:45;;;;;;;6.63;3.10;;;9.10;99.90;;;;;;5025125;28;20481;-69
2023/09/14 06:24:11;;;;;;;6.50;3.40;;;9.20;99.90;;;;;;5055680;28;20099;-69
2023/09/14 06:26:36;;;;;;;7.20;3.60;;;9.20;99.90;;;;;;5069242;28;20068;-68
2023/09/14 06:29:02;;;;;;;6.40;3.30;;;9.30;99.90;;;;;;5045827;28;20043;-69
2023/09/14 06:31:28;;;;;;;7.28;3.45;;;9.30;99.90;;;;;;5075527;28;20071;-69
2023/09/14 06:33:54;;;;;;;6.35;3.20;;;9.40;99.90;;;;;;5037786;28;20077;-69
2023/09/14 06:36:19;;;;;;;8.63;3.58;;;9.40;99.90;;;;;;5050622;28;20071;-68
2023/09/14 06:38:46;;;;;;;12.43;3.67;;;9.50;99.90;;;;;;5045137;28;20049;-68
2023/09/14 06:41:13;;;;;;;7.93;3.60;;;9.50;99.90;;;;;;5055720;28;20061;-68
2023/09/14 06:43:41;;;;;;;9.43;3.28;;;9.60;99.90;;;;;;5052065;28;20054;-68
2023/09/14 06:46:07;;;;;;;8.52;3.60;;;9.70;99.90;;;;;;5040310;28;20044;-69
2023/09/14 06:48:34;;;;;;;8.43;3.78;;;9.80;99.90;;;;;;5025122;28;20047;-70
2023/09/14 06:51:00;;;;;;;7.65;3.47;;;9.80;99.90;;;;;;5042088;28;20591;-69
2023/09/14 06:53:26;;;;;;;8.63;3.13;;;9.90;99.90;;;;;;5073599;28;20132;-69
2023/09/14 06:55:52;;;;;;;7.88;2.97;;;10.00;99.90;;;;;;5082895;28;20131;-69
2023/09/14 06:58:18;;;;;;;7.78;3.08;;;10.10;99.90;;;;;;5055497;28;20044;-69
2023/09/14 07:00:43;;;;;;;11.13;3.90;;;10.10;99.90;;;;;;5025712;28;20154;-69
2023/09/14 07:03:09;;;;;;;6.90;2.85;;;10.20;99.90;;;;;;5066119;28;20478;-68
2023/09/14 07:05:36;;;;;;;8.27;3.40;;;10.30;99.90;;;;;;5048965;28;20037;-69
2023/09/14 07:08:02;;;;;;;6.32;3.08;;;10.40;99.90;;;;;;5040167;28;20116;-68
2023/09/14 07:10:29;;;;;;;6.40;3.00;;;10.50;99.90;;;;;;5045578;28;20116;-68
2023/09/14 07:12:55;;;;;;;10.80;3.17;;;10.60;99.90;;;;;;5000486;28;20461;-68
2023/09/14 07:15:21;;;;;;;4.20;2.92;;;10.70;99.90;;;;;;5042343;28;20073;-68
2023/09/14 07:17:47;;;;;;;6.05;2.83;;;10.80;99.90;;;;;;5027967;28;20083;-68
2023/09/14 07:20:12;;;;;;;6.28;2.88;;;10.90;99.90;;;;;;5059285;28;20579;-68
2023/09/14 07:22:38;;;;;;;5.15;2.80;;;11.00;99.90;;;;;;5050606;28;20036;-69
2023/09/14 07:25:08;;;;;;;7.32;3.30;;;11.10;99.90;;;;;;5059723;28;20051;-69
2023/09/14 07:27:35;;;;;;;11.27;3.30;;;11.30;99.90;;;;;;5039339;28;20040;-69
2023/09/14 07:30:01;;;;;;;6.80;2.97;;;11.40;99.90;;;;;;5039491;28;20490;-68
2023/09/14 07:32:26;;;;;;;11.57;2.80;;;11.70;99.90;;;;;;5057141;28;20448;-69
2023/09/14 07:34:53;;;;;;;11.80;3.83;;;12.00;99.90;;;;;;5060330;28;20048;-69
2023/09/14 07:37:18;;;;;;;8.32;3.42;;;12.20;99.90;;;;;;5088375;28;20968;-69
2023/09/14 07:39:46;;;;;;;6.53;3.53;;;12.40;99.90;;;;;;5053931;28;20076;-70
2023/09/14 07:42:11;;;;;;;6.85;3.25;;;12.80;99.90;;;;;;5030549;28;20060;-69
2023/09/14 07:44:37;;;;;;;5.70;2.80;;;13.00;99.90;;;;;;5038499;28;20037;-69
2023/09/14 07:47:03;;;;;;;11.25;3.30;;;13.20;99.90;;;;;;5051703;28;20048;-69
2023/09/14 07:49:29;;;;;;;6.82;3.20;;;13.50;99.90;;;;;;5024543;28;20033;-69
2023/09/14 07:51:54;;;;;;;9.50;3.70;;;13.70;99.90;;;;;;5023259;28;20040;-70
2023/09/14 07:54:21;;;;;;;8.98;3.28;;;13.90;99.90;;;;;;5053925;28;20548;-70
2023/09/14 07:56:47;;;;;;;7.32;3.13;;;14.00;99.90;;;;;;5034387;28;20059;-70
2023/09/14 07:59:12;;;;;;;7.35;3.20;;;14.30;99.90;;;;;;5034358;28;20049;-70
2023/09/14 08:01:38;;;;;;;5.90;2.67;;;14.50;99.90;;;;;;5033995;28;20036;-70
2023/09/14 08:04:04;;;;;;;10.95;3.28;;;14.60;99.90;;;;;;5034349;28;20037;-70
2023/09/14 08:06:30;;;;;;;9.32;2.83;;;14.80;99.90;;;;;;5034340;28;20044;-70
2023/09/14 08:08:56;;;;;;;8.05;2.92;;;14.90;99.90;;;;;;5042348;28;20402;-70
2023/09/14 08:11:22;;;;;;;9.68;2.83;;;15.00;99.90;;;;;;5035692;28;20037;-71
2023/09/14 08:13:47;;;;;;;8.57;3.00;;;15.30;99.90;;;;;;5036230;28;20043;-70
2023/09/14 08:16:13;;;;;;;7.80;2.60;;;15.40;99.90;;;;;;5055192;28;20045;-70
2023/09/14 08:18:39;;;;;;;6.82;2.60;;;15.60;99.90;;;;;;5016563;28;20148;-71
2023/09/14 08:21:04;;;;;;;10.40;3.40;;;15.80;99.90;;;;;;5044758;28;20032;-71
2023/09/14 08:23:30;;;;;;;7.90;2.63;;;15.90;99.90;;;;;;5029464;28;20395;-71
2023/09/14 08:25:56;;;;;;;9.30;3.20;;;16.00;99.90;;;;;;5037229;28;20556;-71
2023/09/14 08:28:21;;;;;;;6.78;2.67;;;16.10;99.90;;;;;;5032263;28;20041;-71
2023/09/14 08:30:48;;;;;;;11.48;3.10;;;16.30;99.90;;;;;;5018173;28;20045;-71
2023/09/14 08:33:15;;;;;;;5.72;2.70;;;16.30;99.90;;;;;;5059782;28;20047;-71
2023/09/14 08:35:44;;;;;;;10.20;2.95;;;16.40;99.90;;;;;;5033860;28;20079;-71
2023/09/14 08:38:11;;;;;;;12.82;2.85;;;16.60;99.90;;;;;;5039727;28;20531;-71
2023/09/14 08:40:38;;;;;;;7.88;2.25;;;16.70;99.90;;;;;;5033816;28;20098;-71
2023/09/14 08:43:09;;;;;;;9.88;2.40;;;16.70;99.90;;;;;;5021888;28;20060;-71
2023/09/14 08:45:37;;;;;;;5.60;2.38;;;16.80;99.90;;;;;;5049886;28;20084;-72
2023/09/14 08:48:04;;;;;;;8.80;2.80;;;16.80;99.90;;;;;;5038033;28;20099;-72
2023/09/14 08:50:32;;;;;;;7.68;2.50;;;16.80;99.90;;;;;;5017585;28;20041;-72
2023/09/14 08:52:58;;;;;;;7.13;2.33;;;16.90;99.90;;;;;;5061697;28;20049;-72
2023/09/14 08:55:28;;;;;;;9.02;2.55;;;17.00;99.90;;;;;;5026149;28;20048;-72
2023/09/14 08:57:54;;;;;;;5.22;2.50;;;17.20;99.90;;;;;;5054070;28;20047;-72
2023/09/14 09:00:21;;;;;;;8.48;2.80;;;17.30;99.90;;;;;;5060251;28;20076;-72
2023/09/14 09:02:52;;;;;;;8.57;2.83;;;17.30;99.90;;;;;;5058200;28;20394;-71
2023/09/14 09:05:20;;;;;;;8.23;2.80;;;17.30;99.90;;;;;;5058500;28;20124;-72
2023/09/14 09:07:50;;;;;;;5.70;2.72;;;17.30;99.90;;;;;;5055093;28;20055;-72
2023/09/14 09:10:27;;;;;;;8.75;3.17;;;17.40;99.90;;;;;;5035965;28;20398;-73
2023/09/14 09:12:56;;;;;;;6.50;2.65;;;17.40;99.90;;;;;;5051241;28;20379;-73
2023/09/14 09:15:24;;;;;;;8.15;2.47;;;17.50;99.90;;;;;;5034554;28;20037;-74
2023/09/14 09:18:04;;;;;;;14.68;2.67;;;17.60;99.90;;;;;;5051684;28;20448;-73
2023/09/14 09:20:30;;;;;;;5.47;2.45;;;17.70;99.90;;;;;;5061454;28;20116;-73
2023/09/14 09:23:00;;;;;;;7.60;2.63;;;17.70;99.90;;;;;;5035331;28;20132;-72
2023/09/14 09:25:26;;;;;;;7.18;2.80;;;17.80;99.90;;;;;;5042640;28;20091;-73
2023/09/14 09:28:00;;;;;;;7.10;2.30;;;17.90;99.90;;;;;;5017051;28;20052;-72
2023/09/14 09:30:30;;;;;;;6.15;2.42;;;17.80;99.90;;;;;;5049449;28;20064;-72
2023/09/14 09:32:56;;;;;;;8.68;2.67;;;17.70;99.90;;;;;;5038054;28;20043;-72
2023/09/14 09:35:24;;;;;;;5.30;2.33;;;17.80;99.90;;;;;;5041076;28;20131;-73
2023/09/14 09:37:51;;;;;;;7.50;2.70;;;17.90;99.90;;;;;;5086834;28;20052;-73
2023/09/14 09:40:28;;;;;;;9.02;2.53;;;17.70;99.90;;;;;;5053532;28;20091;-73
2023/09/14 09:42:54;;;;;;;7.55;3.03;;;17.50;99.90;;;;;;5051184;28;20135;-73
2023/09/14 09:45:24;;;;;;;6.45;2.88;;;17.50;99.90;;;;;;5036503;28;20532;-73
2023/09/14 09:47:50;;;;;;;7.78;2.40;;;17.50;99.90;;;;;;5052780;28;20045;-72
2023/09/14 09:50:20;;;;;;;5.97;2.65;;;17.70;99.90;;;;;;5053334;28;20493;-73
2023/09/14 09:52:47;;;;;;;10.93;3.60;;;17.90;99.90;;;;;;5036209;28;20127;-73
2023/09/14 09:55:24;;;;;;;12.90;2.90;;;18.10;99.90;;;;;;5018033;28;20044;-73
2023/09/14 09:57:58;;;;;;;9.68;2.33;;;18.20;99.90;;;;;;5052824;28;20051;-73
2023/09/14 10:00:31;;;;;;;13.38;2.80;;;18.40;99.90;;;;;;5035519;28;20497;-73
2023/09/14 10:02:57;;;;;;;8.43;2.50;;;18.30;99.90;;;;;;5052994;28;20045;-73
2023/09/14 10:05:32;;;;;;;11.15;2.70;;;18.30;99.90;;;;;;5052960;28;20048;-73
2023/09/14 10:07:59;;;;;;;9.15;3.05;;;18.40;99.90;;;;;;5035797;28;20045;-73
2023/09/14 10:10:26;;;;;;;8.38;2.72;;;18.70;99.90;;;;;;5053213;28;20155;-74
2023/09/14 10:12:56;;;;;;;10.55;2.92;;;19.00;99.90;;;;;;5053433;28;20037;-73
2023/09/14 10:15:25;;;;;;;6.72;2.70;;;19.00;99.90;;;;;;5048747;28;20048;-72
2023/09/14 10:17:56;;;;;;;7.28;3.05;;;18.90;99.90;;;;;;5052770;28;20044;-73
2023/09/14 10:20:23;;;;;;;8.45;2.50;;;18.70;99.90;;;;;;5022927;28;20099;-73
2023/09/14 10:22:50;;;;;;;6.00;2.70;;;18.50;99.90;;;;;;5052713;28;20053;-73
2023/09/14 10:25:17;;;;;;;6.22;2.22;;;18.20;99.90;;;;;;5052312;28;20045;-73
2023/09/14 10:27:43;;;;;;;7.13;3.13;;;18.10;99.90;;;;;;5063751;28;20492;-73
2023/09/14 10:30:21;;;;;;;55.67;8.75;;;18.10;99.90;;;;;;5008245;28;20044;-73
2023/09/14 10:32:57;;;;;;;6.70;2.60;;;18.00;99.90;;;;;;5051640;28;20521;-72
2023/09/14 10:35:24;;;;;;;8.77;2.83;;;17.90;99.90;;;;;;5034349;28;20091;-73
2023/09/14 10:37:50;;;;;;;5.75;2.47;;;18.10;99.90;;;;;;5052349;28;20391;-73
2023/09/14 10:40:17;;;;;;;6.47;2.67;;;18.10;99.90;;;;;;5040025;28;20103;-73
2023/09/14 10:42:43;;;;;;;5.72;2.30;;;18.00;99.90;;;;;;5069505;28;20053;-73
2023/09/14 10:45:13;;;;;;;9.32;3.10;;;17.90;99.90;;;;;;5051925;28;20048;-73
2023/09/14 10:47:50;;;;;;;8.32;2.63;;;17.90;99.90;;;;;;5023389;28;20124;-73
2023/09/14 10:50:20;;;;;;;7.07;2.70;;;17.90;99.90;;;;;;5050191;28;20124;-74
2023/09/14 10:52:45;;;;;;;8.18;2.60;;;18.00;99.90;;;;;;5052798;28;20068;-74
2023/09/14 10:55:12;;;;;;;5.68;2.58;;;18.20;99.90;;;;;;5046456;28;20076;-73
2023/09/14 10:57:41;;;;;;;8.68;2.40;;;18.50;99.90;;;;;;5049576;28;20045;-74
2023/09/14 11:00:09;;;;;;;12.10;3.10;;;18.80;99.90;;;;;;5023363;28;20494;-74
2023/09/14 11:02:43;;;;;;;7.95;2.53;;;19.20;99.90;;;;;;5035252;28;20052;-73
2023/09/14 11:05:16;;;;;;;7.00;2.78;;;19.40;99.90;;;;;;5044591;28;20056;-74
2023/09/14 11:07:53;;;;;;;10.65;2.92;;;19.30;99.90;;;;;;5024347;28;20041;-74
2023/09/14 11:10:21;;;;;;;8.90;2.70;;;19.10;99.90;;;;;;5046321;28;20302;-74
2023/09/14 11:12:47;;;;;;;5.60;2.92;;;18.90;99.90;;;;;;5040180;28;20052;-74
2023/09/14 11:15:20;;;;;;;3.60;2.33;;;18.70;99.90;;;;;;5058067;28;20529;-74
2023/09/14 11:17:55;;;;;;;5.53;2.50;;;18.50;99.90;;;;;;5038735;28;20460;-74
2023/09/14 11:20:24;;;;;;;10.15;2.85;;;18.40;99.90;;;;;;5043676;28;20079;-73
2023/09/14 11:22:52;;;;;;;8.70;2.63;;;18.20;99.90;;;;;;5050388;28;20131;-74
2023/09/14 11:25:28;;;;;;;6.85;2.88;;;18.20;99.90;;;;;;5043668;28;20105;-73
2023/09/14 11:27:55;;;;;;;7.32;2.60;;;18.20;99.90;;;;;;5060072;28;20040;-74
2023/09/14 11:30:21;;;;;;;8.55;2.72;;;18.10;99.90;;;;;;5054670;28;20048;-74
2023/09/14 11:32:48;;;;;;;6.72;3.05;;;18.10;99.90;;;;;;5046579;28;20040;-73
2023/09/14 11:35:14;;;;;;;12.38;2.47;;;18.10;99.90;;;;;;5028466;28;20528;-73
2023/09/14 11:37:40;;;;;;;9.02;3.10;;;18.00;99.90;;;;;;5042066;28;20124;-73
2023/09/14 11:40:15;;;;;;;8.25;2.85;;;18.00;99.90;;;;;;5017986;28;20041;-73
2023/09/14 11:43:21;;;;;;;6.68;2.33;;;18.00;99.90;;;;;;5050900;28;20044;-73
2023/09/14 11:45:58;;;;;;;9.52;2.85;;;18.00;99.90;;;;;;5050130;28;20048;-73
2023/09/14 11:48:29;;;;;;;7.05;2.70;;;18.00;99.90;;;;;;5073908;28;20556;-73
2023/09/14 11:50:56;;;;;;;9.90;3.00;;;18.00;99.90;;;;;;5035165;28;20073;-73
2023/09/14 11:53:22;;;;;;;6.40;2.72;;;18.00;99.90;;;;;;5026350;28;20047;-73
2023/09/14 11:55:49;;;;;;;6.10;2.60;;;17.90;99.90;;;;;;5035799;28;20043;-73
2023/09/14 11:58:16;;;;;;;8.68;2.97;;;17.90;99.90;;;;;;5035983;28;20045;-73
2023/09/14 12:00:50;;;;;;;7.13;2.70;;;17.90;99.90;;;;;;5018176;28;20136;-73
2023/09/14 12:03:16;;;;;;;8.82;2.90;;;18.00;99.90;;;;;;5014251;28;20041;-73
2023/09/14 12:05:42;;;;;;;6.80;2.75;;;18.20;99.90;;;;;;5018477;28;20044;-73
2023/09/14 12:08:12;;;;;;;7.20;2.67;;;18.60;99.90;;;;;;5013349;28;20042;-73
2023/09/14 12:10:39;;;;;;;6.18;2.35;;;19.00;99.90;;;;;;5035943;28;20242;-73
2023/09/14 12:13:17;;;;;;;5.68;2.40;;;19.30;99.90;;;;;;5034949;28;20032;-74
2023/09/14 12:15:55;;;;;;;8.48;2.80;;;19.60;99.90;;;;;;5020261;28;20294;-73
2023/09/14 12:18:21;;;;;;;6.40;3.05;;;19.90;99.90;;;;;;5050099;28;20055;-74
2023/09/14 12:20:48;;;;;;;5.93;2.60;;;20.00;99.90;;;;;;5017376;28;20040;-74
2023/09/14 12:23:14;;;;;;;6.97;2.70;;;20.00;99.90;;;;;;5016786;28;20075;-73
2023/09/14 12:25:41;;;;;;;7.60;2.95;;;19.90;99.90;;;;;;5017054;28;20045;-74
2023/09/14 12:28:11;;;;;;;7.43;2.90;;;19.70;99.90;;;;;;5035608;28;20037;-74
2023/09/14 12:30:38;;;;;;;5.93;2.60;;;19.70;99.90;;;;;;5035181;28;20056;-74
2023/09/14 12:33:06;;;;;;;4.75;2.67;;;19.90;99.90;;;;;;5045830;28;20041;-73
2023/09/14 12:35:32;;;;;;;6.60;3.00;;;20.00;99.90;;;;;;5050646;28;20049;-74
2023/09/14 12:38:04;;;;;;;5.15;2.72;;;20.10;99.90;;;;;;5045753;28;20405;-73
2023/09/14 12:40:34;;;;;;;5.35;2.65;;;20.00;99.30;;;;;;5047308;28;20536;-73
2023/09/14 12:43:04;;;;;;;5.43;3.20;;;19.90;99.90;;;;;;5048062;28;20065;-73
2023/09/14 12:45:35;;;;;;;5.75;2.83;;;19.70;99.20;;;;;;5050158;28;20045;-73
2023/09/14 12:48:11;;;;;;;5.60;2.70;;;19.60;99.10;;;;;;5036443;28;20045;-73
2023/09/14 12:50:37;;;;;;;6.82;2.80;;;19.70;99.60;;;;;;5030385;28;20045;-74
2023/09/14 12:53:13;;;;;;;8.57;3.00;;;19.90;99.90;;;;;;5044118;28;20079;-73